sensor_id;sensor_type;location;lat;lon;timestamp;temperature;humidity
42421;DHT22;28063;48.140;11.588;2023-07-20T00:02:23;22.00;62.60
42421;DHT22;28063;48.140;11.588;2023-07-20T00:04:49;21.90;62.70
42421;DHT22;28063;48.140;11.588;2023-07-20T00:07:14;21.90;62.80
42421;DHT22;28063;48.140;11.588;2023-07-20T00:09:40;21.80;62.90
42421;DHT22;28063;48.140;11.588;2023-07-20T00:12:06;21.80;63.10
42421;DHT22;28063;48.140;11.588;2023-07-20T00:14:32;21.70;63.30
42421;DHT22;28063;48.140;11.588;2023-07-20T00:16:58;21.70;63.30
42421;DHT22;28063;48.140;11.588;2023-07-20T00:19:27;21.70;63.20
42421;DHT22;28063;48.140;11.588;2023-07-20T00:21:53;21.70;63.20
42421;DHT22;28063;48.140;11.588;2023-07-20T00:24:20;21.70;63.40
42421;DHT22;28063;48.140;11.588;2023-07-20T00:26:46;21.70;63.50
42421;DHT22;28063;48.140;11.588;2023-07-20T00:29:12;21.70;63.30
42421;DHT22;28063;48.140;11.588;2023-07-20T00:31:38;21.60;63.30
42421;DHT22;28063;48.140;11.588;2023-07-20T00:34:04;21.60;63.50
42421;DHT22;28063;48.140;11.588;2023-07-20T00:36:30;21.50;63.60
42421;DHT22;28063;48.140;11.588;2023-07-20T00:38:55;21.50;63.90
42421;DHT22;28063;48.140;11.588;2023-07-20T00:41:21;21.60;63.90
42421;DHT22;28063;48.140;11.588;2023-07-20T00:43:47;21.60;63.80
42421;DHT22;28063;48.140;11.588;2023-07-20T00:46:13;21.70;63.80
42421;DHT22;28063;48.140;11.588;2023-07-20T00:48:43;21.70;63.50
42421;DHT22;28063;48.140;11.588;2023-07-20T00:51:09;21.70;63.30
42421;DHT22;28063;48.140;11.588;2023-07-20T00:53:35;21.70;63.60
42421;DHT22;28063;48.140;11.588;2023-07-20T00:56:01;21.60;63.70
42421;DHT22;28063;48.140;11.588;2023-07-20T00:58:27;21.60;63.70
42421;DHT22;28063;48.140;11.588;2023-07-20T01:00:53;21.60;63.70
42421;DHT22;28063;48.140;11.588;2023-07-20T01:03:19;21.60;63.70
42421;DHT22;28063;48.140;11.588;2023-07-20T01:08:43;21.60;63.90
42421;DHT22;28063;48.140;11.588;2023-07-20T01:14:12;21.50;64.30
42421;DHT22;28063;48.140;11.588;2023-07-20T01:16:37;21.40;64.40
42421;DHT22;28063;48.140;11.588;2023-07-20T01:19:03;21.40;64.60
42421;DHT22;28063;48.140;11.588;2023-07-20T01:27:39;21.30;65.20
42421;DHT22;28063;48.140;11.588;2023-07-20T01:33:18;21.30;65.20
42421;DHT22;28063;48.140;11.588;2023-07-20T01:35:47;21.30;65.40
42421;DHT22;28063;48.140;11.588;2023-07-20T01:38:14;21.30;65.40
42421;DHT22;28063;48.140;11.588;2023-07-20T01:40:40;21.40;65.30
42421;DHT22;28063;48.140;11.588;2023-07-20T01:43:06;21.40;65.20
42421;DHT22;28063;48.140;11.588;2023-07-20T01:45:32;21.40;65.20
42421;DHT22;28063;48.140;11.588;2023-07-20T01:47:57;21.40;65.00
42421;DHT22;28063;48.140;11.588;2023-07-20T01:50:23;21.40;65.10
42421;DHT22;28063;48.140;11.588;2023-07-20T01:52:49;21.40;65.10
42421;DHT22;28063;48.140;11.588;2023-07-20T01:55:14;21.40;64.50
42421;DHT22;28063;48.140;11.588;2023-07-20T01:57:40;21.40;63.90
42421;DHT22;28063;48.140;11.588;2023-07-20T02:00:06;21.40;63.90
42421;DHT22;28063;48.140;11.588;2023-07-20T02:02:32;21.30;63.90
42421;DHT22;28063;48.140;11.588;2023-07-20T02:04:58;21.30;63.30
42421;DHT22;28063;48.140;11.588;2023-07-20T02:07:23;21.30;63.80
42421;DHT22;28063;48.140;11.588;2023-07-20T02:09:49;21.30;64.20
42421;DHT22;28063;48.140;11.588;2023-07-20T02:12:15;21.30;64.30
42421;DHT22;28063;48.140;11.588;2023-07-20T02:14:40;21.30;64.40
42421;DHT22;28063;48.140;11.588;2023-07-20T02:17:06;21.30;64.70
42421;DHT22;28063;48.140;11.588;2023-07-20T02:19:32;21.30;65.10
42421;DHT22;28063;48.140;11.588;2023-07-20T02:21:57;21.30;65.20
42421;DHT22;28063;48.140;11.588;2023-07-20T02:24:23;21.30;65.30
42421;DHT22;28063;48.140;11.588;2023-07-20T02:26:50;21.30;65.20
42421;DHT22;28063;48.140;11.588;2023-07-20T02:29:16;21.20;65.40
42421;DHT22;28063;48.140;11.588;2023-07-20T02:31:41;21.20;65.50
42421;DHT22;28063;48.140;11.588;2023-07-20T02:34:08;21.10;65.50
42421;DHT22;28063;48.140;11.588;2023-07-20T02:36:35;21.20;65.60
42421;DHT22;28063;48.140;11.588;2023-07-20T02:39:01;21.10;65.60
42421;DHT22;28063;48.140;11.588;2023-07-20T02:41:32;21.10;65.60
42421;DHT22;28063;48.140;11.588;2023-07-20T02:43:58;21.00;65.60
42421;DHT22;28063;48.140;11.588;2023-07-20T02:46:24;21.00;65.60
42421;DHT22;28063;48.140;11.588;2023-07-20T02:48:50;21.00;65.60
42421;DHT22;28063;48.140;11.588;2023-07-20T02:51:15;20.90;65.40
42421;DHT22;28063;48.140;11.588;2023-07-20T02:53:41;21.00;65.40
42421;DHT22;28063;48.140;11.588;2023-07-20T02:56:07;21.00;65.40
42421;DHT22;28063;48.140;11.588;2023-07-20T02:58:34;20.90;65.50
42421;DHT22;28063;48.140;11.588;2023-07-20T03:01:02;20.90;65.00
42421;DHT22;28063;48.140;11.588;2023-07-20T03:03:28;20.90;65.10
42421;DHT22;28063;48.140;11.588;2023-07-20T03:05:54;20.90;65.60
42421;DHT22;28063;48.140;11.588;2023-07-20T03:08:21;20.80;66.90
42421;DHT22;28063;48.140;11.588;2023-07-20T03:10:47;20.60;68.50
42421;DHT22;28063;48.140;11.588;2023-07-20T03:13:13;20.30;69.60
42421;DHT22;28063;48.140;11.588;2023-07-20T03:15:39;20.20;70.50
42421;DHT22;28063;48.140;11.588;2023-07-20T03:18:05;20.00;71.30
42421;DHT22;28063;48.140;11.588;2023-07-20T03:20:31;20.00;71.80
42421;DHT22;28063;48.140;11.588;2023-07-20T03:22:57;19.90;72.00
42421;DHT22;28063;48.140;11.588;2023-07-20T03:25:22;19.90;72.40
42421;DHT22;28063;48.140;11.588;2023-07-20T03:27:48;19.90;72.70
42421;DHT22;28063;48.140;11.588;2023-07-20T03:30:14;19.90;72.80
42421;DHT22;28063;48.140;11.588;2023-07-20T03:32:40;20.00;73.20
42421;DHT22;28063;48.140;11.588;2023-07-20T03:35:06;19.90;73.20
42421;DHT22;28063;48.140;11.588;2023-07-20T03:37:32;19.90;73.40
42421;DHT22;28063;48.140;11.588;2023-07-20T03:39:57;19.80;74.70
42421;DHT22;28063;48.140;11.588;2023-07-20T03:42:23;19.80;75.10
42421;DHT22;28063;48.140;11.588;2023-07-20T03:44:49;19.50;75.50
42421;DHT22;28063;48.140;11.588;2023-07-20T03:47:16;19.40;76.30
42421;DHT22;28063;48.140;11.588;2023-07-20T03:49:41;19.30;77.20
42421;DHT22;28063;48.140;11.588;2023-07-20T03:52:07;19.30;77.80
42421;DHT22;28063;48.140;11.588;2023-07-20T03:54:33;19.30;78.10
42421;DHT22;28063;48.140;11.588;2023-07-20T03:56:58;19.30;78.20
42421;DHT22;28063;48.140;11.588;2023-07-20T03:59:24;19.30;78.00
42421;DHT22;28063;48.140;11.588;2023-07-20T04:01:50;19.30;77.80
42421;DHT22;28063;48.140;11.588;2023-07-20T04:04:16;19.30;77.90
42421;DHT22;28063;48.140;11.588;2023-07-20T04:06:42;19.30;77.90
42421;DHT22;28063;48.140;11.588;2023-07-20T04:09:11;19.30;78.00
42421;DHT22;28063;48.140;11.588;2023-07-20T04:11:37;19.30;78.10
42421;DHT22;28063;48.140;11.588;2023-07-20T04:14:02;19.20;78.60
42421;DHT22;28063;48.140;11.588;2023-07-20T04:16:28;19.30;79.00
42421;DHT22;28063;48.140;11.588;2023-07-20T04:18:57;19.30;78.80
42421;DHT22;28063;48.140;11.588;2023-07-20T04:21:25;19.30;79.10
42421;DHT22;28063;48.140;11.588;2023-07-20T04:23:51;19.30;79.00
42421;DHT22;28063;48.140;11.588;2023-07-20T04:26:17;19.30;78.90
42421;DHT22;28063;48.140;11.588;2023-07-20T04:28:42;19.30;79.10
42421;DHT22;28063;48.140;11.588;2023-07-20T04:31:12;19.30;79.00
42421;DHT22;28063;48.140;11.588;2023-07-20T04:33:38;19.30;78.30
42421;DHT22;28063;48.140;11.588;2023-07-20T04:36:04;19.30;78.30
42421;DHT22;28063;48.140;11.588;2023-07-20T04:38:29;19.40;78.10
42421;DHT22;28063;48.140;11.588;2023-07-20T04:40:55;19.40;77.90
42421;DHT22;28063;48.140;11.588;2023-07-20T04:43:21;19.40;77.60
42421;DHT22;28063;48.140;11.588;2023-07-20T04:45:47;19.50;77.20
42421;DHT22;28063;48.140;11.588;2023-07-20T04:48:14;19.50;77.20
42421;DHT22;28063;48.140;11.588;2023-07-20T04:50:41;19.50;76.90
42421;DHT22;28063;48.140;11.588;2023-07-20T04:53:08;19.50;76.30
42421;DHT22;28063;48.140;11.588;2023-07-20T04:55:35;19.50;76.00
42421;DHT22;28063;48.140;11.588;2023-07-20T04:58:03;19.50;76.20
42421;DHT22;28063;48.140;11.588;2023-07-20T05:00:38;19.50;76.50
42421;DHT22;28063;48.140;11.588;2023-07-20T05:03:03;19.50;76.60
42421;DHT22;28063;48.140;11.588;2023-07-20T05:05:31;19.50;76.10
42421;DHT22;28063;48.140;11.588;2023-07-20T05:07:57;19.50;75.80
42421;DHT22;28063;48.140;11.588;2023-07-20T05:10:23;19.60;75.70
42421;DHT22;28063;48.140;11.588;2023-07-20T05:12:49;19.60;75.30
42421;DHT22;28063;48.140;11.588;2023-07-20T05:15:15;19.70;75.00
42421;DHT22;28063;48.140;11.588;2023-07-20T05:17:41;19.70;74.50
42421;DHT22;28063;48.140;11.588;2023-07-20T05:20:07;19.70;73.90
42421;DHT22;28063;48.140;11.588;2023-07-20T05:22:35;19.80;73.40
42421;DHT22;28063;48.140;11.588;2023-07-20T05:25:02;19.90;72.40
42421;DHT22;28063;48.140;11.588;2023-07-20T05:27:27;19.90;71.30
42421;DHT22;28063;48.140;11.588;2023-07-20T05:29:53;19.90;69.20
42421;DHT22;28063;48.140;11.588;2023-07-20T05:32:18;19.90;69.30
42421;DHT22;28063;48.140;11.588;2023-07-20T05:34:44;19.90;68.50
42421;DHT22;28063;48.140;11.588;2023-07-20T05:37:11;20.00;69.90
42421;DHT22;28063;48.140;11.588;2023-07-20T05:39:37;19.90;69.00
42421;DHT22;28063;48.140;11.588;2023-07-20T05:42:02;19.90;68.80
42421;DHT22;28063;48.140;11.588;2023-07-20T05:44:28;20.00;68.50
42421;DHT22;28063;48.140;11.588;2023-07-20T05:46:54;20.00;67.10
42421;DHT22;28063;48.140;11.588;2023-07-20T05:49:19;20.00;66.80
42421;DHT22;28063;48.140;11.588;2023-07-20T05:51:45;19.90;66.60
42421;DHT22;28063;48.140;11.588;2023-07-20T05:54:12;20.00;66.70
42421;DHT22;28063;48.140;11.588;2023-07-20T05:56:37;20.00;66.40
42421;DHT22;28063;48.140;11.588;2023-07-20T05:59:03;20.00;66.10
42421;DHT22;28063;48.140;11.588;2023-07-20T06:01:28;20.10;66.00
42421;DHT22;28063;48.140;11.588;2023-07-20T06:03:54;20.10;65.60
42421;DHT22;28063;48.140;11.588;2023-07-20T06:06:20;20.10;64.80
42421;DHT22;28063;48.140;11.588;2023-07-20T06:08:46;20.20;64.80
42421;DHT22;28063;48.140;11.588;2023-07-20T06:11:11;20.20;64.00
42421;DHT22;28063;48.140;11.588;2023-07-20T06:13:37;20.30;63.80
42421;DHT22;28063;48.140;11.588;2023-07-20T06:16:03;20.50;63.40
42421;DHT22;28063;48.140;11.588;2023-07-20T06:18:29;20.70;62.50
42421;DHT22;28063;48.140;11.588;2023-07-20T06:20:56;20.80;62.10
42421;DHT22;28063;48.140;11.588;2023-07-20T06:23:22;22.00;62.10
42421;DHT22;28063;48.140;11.588;2023-07-20T06:25:48;23.50;57.40
42421;DHT22;28063;48.140;11.588;2023-07-20T06:28:14;24.00;55.20
42421;DHT22;28063;48.140;11.588;2023-07-20T06:30:40;23.80;54.70
42421;DHT22;28063;48.140;11.588;2023-07-20T06:33:06;23.40;55.20
42421;DHT22;28063;48.140;11.588;2023-07-20T06:35:33;23.00;56.30
42421;DHT22;28063;48.140;11.588;2023-07-20T06:37:59;22.80;56.50
42421;DHT22;28063;48.140;11.588;2023-07-20T06:40:26;22.60;57.00
42421;DHT22;28063;48.140;11.588;2023-07-20T06:42:52;22.50;57.20
42421;DHT22;28063;48.140;11.588;2023-07-20T06:45:17;22.60;57.00
42421;DHT22;28063;48.140;11.588;2023-07-20T06:47:43;22.70;56.60
42421;DHT22;28063;48.140;11.588;2023-07-20T06:50:10;22.60;56.20
42421;DHT22;28063;48.140;11.588;2023-07-20T06:52:36;22.30;56.90
42421;DHT22;28063;48.140;11.588;2023-07-20T06:55:02;22.10;57.60
42421;DHT22;28063;48.140;11.588;2023-07-20T06:57:28;21.80;58.40
42421;DHT22;28063;48.140;11.588;2023-07-20T06:59:53;21.60;58.80
42421;DHT22;28063;48.140;11.588;2023-07-20T07:07:14;23.60;53.80
42421;DHT22;28063;48.140;11.588;2023-07-20T07:09:40;23.50;54.60
42421;DHT22;28063;48.140;11.588;2023-07-20T07:12:06;23.10;55.60
42421;DHT22;28063;48.140;11.588;2023-07-20T07:14:32;23.20;55.60
42421;DHT22;28063;48.140;11.588;2023-07-20T07:16:58;23.30;55.70
42421;DHT22;28063;48.140;11.588;2023-07-20T07:19:24;23.60;55.60
42421;DHT22;28063;48.140;11.588;2023-07-20T07:21:49;24.00;54.20
42421;DHT22;28063;48.140;11.588;2023-07-20T07:24:15;24.10;53.50
42421;DHT22;28063;48.140;11.588;2023-07-20T07:26:41;24.20;53.70
42421;DHT22;28063;48.140;11.588;2023-07-20T07:29:06;24.30;53.10
42421;DHT22;28063;48.140;11.588;2023-07-20T07:31:35;24.30;53.40
42421;DHT22;28063;48.140;11.588;2023-07-20T07:34:04;24.10;53.10
42421;DHT22;28063;48.140;11.588;2023-07-20T07:36:31;24.00;53.30
42421;DHT22;28063;48.140;11.588;2023-07-20T07:38:56;23.90;53.40
42421;DHT22;28063;48.140;11.588;2023-07-20T07:41:22;23.80;52.80
42421;DHT22;28063;48.140;11.588;2023-07-20T07:43:48;23.70;52.90
42421;DHT22;28063;48.140;11.588;2023-07-20T07:46:14;23.70;52.70
42421;DHT22;28063;48.140;11.588;2023-07-20T07:48:40;23.70;52.80
42421;DHT22;28063;48.140;11.588;2023-07-20T07:51:05;23.90;52.60
42421;DHT22;28063;48.140;11.588;2023-07-20T07:53:31;24.00;52.10
42421;DHT22;28063;48.140;11.588;2023-07-20T07:55:58;24.00;52.00
42421;DHT22;28063;48.140;11.588;2023-07-20T07:58:23;24.10;51.80
42421;DHT22;28063;48.140;11.588;2023-07-20T08:00:49;24.20;51.90
42421;DHT22;28063;48.140;11.588;2023-07-20T08:03:15;24.50;51.20
42421;DHT22;28063;48.140;11.588;2023-07-20T08:05:41;24.50;50.80
42421;DHT22;28063;48.140;11.588;2023-07-20T08:08:06;24.70;50.90
42421;DHT22;28063;48.140;11.588;2023-07-20T08:10:34;24.80;50.10
42421;DHT22;28063;48.140;11.588;2023-07-20T08:12:59;25.00;49.80
42421;DHT22;28063;48.140;11.588;2023-07-20T08:15:25;25.20;49.40
42421;DHT22;28063;48.140;11.588;2023-07-20T08:17:51;25.30;49.40
42421;DHT22;28063;48.140;11.588;2023-07-20T08:20:17;25.40;49.60
42421;DHT22;28063;48.140;11.588;2023-07-20T08:22:43;25.50;49.50
42421;DHT22;28063;48.140;11.588;2023-07-20T08:25:09;25.60;49.50
42421;DHT22;28063;48.140;11.588;2023-07-20T08:27:35;25.80;48.70
42421;DHT22;28063;48.140;11.588;2023-07-20T08:30:02;25.80;48.80
42421;DHT22;28063;48.140;11.588;2023-07-20T08:32:27;25.80;47.50
42421;DHT22;28063;48.140;11.588;2023-07-20T08:34:53;25.50;48.20
42421;DHT22;28063;48.140;11.588;2023-07-20T08:37:19;25.40;48.30
42421;DHT22;28063;48.140;11.588;2023-07-20T08:39:45;25.40;48.70
42421;DHT22;28063;48.140;11.588;2023-07-20T08:42:11;25.50;49.30
42421;DHT22;28063;48.140;11.588;2023-07-20T08:44:38;25.60;49.30
42421;DHT22;28063;48.140;11.588;2023-07-20T08:47:06;25.80;49.10
42421;DHT22;28063;48.140;11.588;2023-07-20T08:49:32;26.00;49.20
42421;DHT22;28063;48.140;11.588;2023-07-20T08:51:59;26.10;49.00
42421;DHT22;28063;48.140;11.588;2023-07-20T08:54:30;26.30;48.50
42421;DHT22;28063;48.140;11.588;2023-07-20T08:57:03;26.20;49.30
42421;DHT22;28063;48.140;11.588;2023-07-20T08:59:29;26.20;48.60
42421;DHT22;28063;48.140;11.588;2023-07-20T09:01:57;26.30;48.80
42421;DHT22;28063;48.140;11.588;2023-07-20T09:04:23;26.60;48.70
42421;DHT22;28063;48.140;11.588;2023-07-20T09:06:49;26.80;48.30
42421;DHT22;28063;48.140;11.588;2023-07-20T09:09:15;26.70;48.20
42421;DHT22;28063;48.140;11.588;2023-07-20T09:11:41;26.60;47.20
42421;DHT22;28063;48.140;11.588;2023-07-20T09:14:08;26.50;45.90
42421;DHT22;28063;48.140;11.588;2023-07-20T09:16:47;26.20;46.50
42421;DHT22;28063;48.140;11.588;2023-07-20T09:19:17;26.10;46.30
42421;DHT22;28063;48.140;11.588;2023-07-20T09:21:51;25.90;47.10
42421;DHT22;28063;48.140;11.588;2023-07-20T09:24:20;25.80;47.30
42421;DHT22;28063;48.140;11.588;2023-07-20T09:26:48;25.70;47.00
42421;DHT22;28063;48.140;11.588;2023-07-20T09:29:17;25.40;47.30
42421;DHT22;28063;48.140;11.588;2023-07-20T09:32:01;24.90;47.50
42421;DHT22;28063;48.140;11.588;2023-07-20T09:34:29;24.60;48.40
42421;DHT22;28063;48.140;11.588;2023-07-20T09:36:58;24.60;49.10
42421;DHT22;28063;48.140;11.588;2023-07-20T09:39:23;24.70;48.60
42421;DHT22;28063;48.140;11.588;2023-07-20T09:41:50;24.70;48.80
42421;DHT22;28063;48.140;11.588;2023-07-20T09:44:16;25.00;48.70
42421;DHT22;28063;48.140;11.588;2023-07-20T09:46:50;25.30;48.10
42421;DHT22;28063;48.140;11.588;2023-07-20T09:49:19;25.60;47.50
42421;DHT22;28063;48.140;11.588;2023-07-20T09:51:46;26.00;46.90
42421;DHT22;28063;48.140;11.588;2023-07-20T09:54:13;26.10;46.10
42421;DHT22;28063;48.140;11.588;2023-07-20T09:56:39;26.00;45.80
42421;DHT22;28063;48.140;11.588;2023-07-20T09:59:06;26.10;46.10
42421;DHT22;28063;48.140;11.588;2023-07-20T10:01:33;26.40;45.90
42421;DHT22;28063;48.140;11.588;2023-07-20T10:04:03;26.60;45.20
42421;DHT22;28063;48.140;11.588;2023-07-20T10:06:32;26.80;45.40
42421;DHT22;28063;48.140;11.588;2023-07-20T10:09:03;27.00;45.30
42421;DHT22;28063;48.140;11.588;2023-07-20T10:14:03;27.30;44.70
42421;DHT22;28063;48.140;11.588;2023-07-20T10:16:38;27.50;45.00
42421;DHT22;28063;48.140;11.588;2023-07-20T10:19:34;27.20;45.00
42421;DHT22;28063;48.140;11.588;2023-07-20T10:22:00;26.70;45.50
42421;DHT22;28063;48.140;11.588;2023-07-20T10:24:29;26.20;46.20
42421;DHT22;28063;48.140;11.588;2023-07-20T10:26:58;26.00;46.80
42421;DHT22;28063;48.140;11.588;2023-07-20T10:29:24;25.60;47.00
42421;DHT22;28063;48.140;11.588;2023-07-20T10:31:50;25.30;48.00
42421;DHT22;28063;48.140;11.588;2023-07-20T10:34:16;25.10;48.50
42421;DHT22;28063;48.140;11.588;2023-07-20T10:36:46;24.90;49.20
42421;DHT22;28063;48.140;11.588;2023-07-20T10:39:28;24.80;49.80
42421;DHT22;28063;48.140;11.588;2023-07-20T10:42:11;24.80;49.70
42421;DHT22;28063;48.140;11.588;2023-07-20T10:44:37;25.00;49.90
42421;DHT22;28063;48.140;11.588;2023-07-20T10:47:09;25.40;49.60
42421;DHT22;28063;48.140;11.588;2023-07-20T10:49:35;26.00;48.60
42421;DHT22;28063;48.140;11.588;2023-07-20T10:52:20;26.50;47.70
42421;DHT22;28063;48.140;11.588;2023-07-20T10:54:50;26.70;47.20
42421;DHT22;28063;48.140;11.588;2023-07-20T10:57:42;26.80;46.40
42421;DHT22;28063;48.140;11.588;2023-07-20T11:00:12;26.60;46.90
42421;DHT22;28063;48.140;11.588;2023-07-20T11:02:48;26.50;46.70
42421;DHT22;28063;48.140;11.588;2023-07-20T11:05:38;26.30;46.90
42421;DHT22;28063;48.140;11.588;2023-07-20T11:08:09;25.90;47.70
42421;DHT22;28063;48.140;11.588;2023-07-20T11:10:35;25.80;48.50
42421;DHT22;28063;48.140;11.588;2023-07-20T11:13:20;26.00;48.30
42421;DHT22;28063;48.140;11.588;2023-07-20T11:16:01;26.10;47.30
42421;DHT22;28063;48.140;11.588;2023-07-20T11:18:29;26.20;47.60
42421;DHT22;28063;48.140;11.588;2023-07-20T11:20:56;26.50;47.90
42421;DHT22;28063;48.140;11.588;2023-07-20T11:23:21;26.90;47.40
42421;DHT22;28063;48.140;11.588;2023-07-20T11:25:48;27.50;46.40
42421;DHT22;28063;48.140;11.588;2023-07-20T11:28:14;27.60;45.40
42421;DHT22;28063;48.140;11.588;2023-07-20T11:30:41;27.30;45.40
42421;DHT22;28063;48.140;11.588;2023-07-20T11:33:10;27.20;46.10
42421;DHT22;28063;48.140;11.588;2023-07-20T11:35:42;27.20;46.10
42421;DHT22;28063;48.140;11.588;2023-07-20T11:38:08;27.30;45.70
42421;DHT22;28063;48.140;11.588;2023-07-20T11:40:34;27.30;45.50
42421;DHT22;28063;48.140;11.588;2023-07-20T11:43:00;27.30;45.70
42421;DHT22;28063;48.140;11.588;2023-07-20T11:45:25;27.50;45.80
42421;DHT22;28063;48.140;11.588;2023-07-20T11:47:53;27.60;45.40
42421;DHT22;28063;48.140;11.588;2023-07-20T11:50:18;27.40;44.80
42421;DHT22;28063;48.140;11.588;2023-07-20T11:52:44;27.30;45.30
42421;DHT22;28063;48.140;11.588;2023-07-20T11:55:11;27.30;46.00
42421;DHT22;28063;48.140;11.588;2023-07-20T11:57:37;27.30;46.30
42421;DHT22;28063;48.140;11.588;2023-07-20T12:00:06;27.20;45.30
42421;DHT22;28063;48.140;11.588;2023-07-20T12:02:34;27.00;45.60
42421;DHT22;28063;48.140;11.588;2023-07-20T12:05:02;27.00;45.80
42421;DHT22;28063;48.140;11.588;2023-07-20T12:07:29;26.80;45.90
42421;DHT22;28063;48.140;11.588;2023-07-20T12:10:10;26.60;46.30
42421;DHT22;28063;48.140;11.588;2023-07-20T12:12:40;26.60;46.50
42421;DHT22;28063;48.140;11.588;2023-07-20T12:17:50;26.60;46.10
42421;DHT22;28063;48.140;11.588;2023-07-20T12:20:36;26.50;46.60
42421;DHT22;28063;48.140;11.588;2023-07-20T12:23:05;26.40;47.00
42421;DHT22;28063;48.140;11.588;2023-07-20T12:25:41;26.70;47.00
42421;DHT22;28063;48.140;11.588;2023-07-20T12:28:08;26.90;46.30
42421;DHT22;28063;48.140;11.588;2023-07-20T12:30:34;26.90;46.90
42421;DHT22;28063;48.140;11.588;2023-07-20T12:33:01;27.00;46.50
42421;DHT22;28063;48.140;11.588;2023-07-20T12:35:28;27.50;45.60
42421;DHT22;28063;48.140;11.588;2023-07-20T12:37:55;27.90;45.40
42421;DHT22;28063;48.140;11.588;2023-07-20T12:40:21;28.30;44.80
42421;DHT22;28063;48.140;11.588;2023-07-20T12:42:46;28.80;44.10
42421;DHT22;28063;48.140;11.588;2023-07-20T12:45:12;28.90;43.60
42421;DHT22;28063;48.140;11.588;2023-07-20T12:47:39;29.10;42.80
42421;DHT22;28063;48.140;11.588;2023-07-20T12:50:06;28.90;43.00
42421;DHT22;28063;48.140;11.588;2023-07-20T12:52:35;28.30;43.40
42421;DHT22;28063;48.140;11.588;2023-07-20T12:55:02;27.80;44.40
42421;DHT22;28063;48.140;11.588;2023-07-20T12:57:28;27.70;44.50
42421;DHT22;28063;48.140;11.588;2023-07-20T12:59:53;27.70;45.00
42421;DHT22;28063;48.140;11.588;2023-07-20T13:02:19;27.90;44.70
42421;DHT22;28063;48.140;11.588;2023-07-20T13:04:44;28.10;44.10
42421;DHT22;28063;48.140;11.588;2023-07-20T13:09:37;28.40;43.20
42421;DHT22;28063;48.140;11.588;2023-07-20T13:12:03;28.60;44.20
42421;DHT22;28063;48.140;11.588;2023-07-20T13:14:29;28.80;43.60
42421;DHT22;28063;48.140;11.588;2023-07-20T13:16:57;29.00;43.50
42421;DHT22;28063;48.140;11.588;2023-07-20T13:19:23;29.30;42.60
42421;DHT22;28063;48.140;11.588;2023-07-20T13:21:49;29.10;42.90
42421;DHT22;28063;48.140;11.588;2023-07-20T13:24:15;28.80;43.40
42421;DHT22;28063;48.140;11.588;2023-07-20T13:26:40;29.00;43.50
42421;DHT22;28063;48.140;11.588;2023-07-20T13:29:06;29.20;42.80
42421;DHT22;28063;48.140;11.588;2023-07-20T13:31:32;29.20;42.20
42421;DHT22;28063;48.140;11.588;2023-07-20T13:33:57;28.80;42.40
42421;DHT22;28063;48.140;11.588;2023-07-20T13:36:24;28.40;43.40
42421;DHT22;28063;48.140;11.588;2023-07-20T13:38:49;28.30;43.50
42421;DHT22;28063;48.140;11.588;2023-07-20T13:41:15;28.40;44.10
42421;DHT22;28063;48.140;11.588;2023-07-20T13:43:42;28.50;43.10
42421;DHT22;28063;48.140;11.588;2023-07-20T13:46:08;28.40;43.40
42421;DHT22;28063;48.140;11.588;2023-07-20T13:48:33;28.40;43.70
42421;DHT22;28063;48.140;11.588;2023-07-20T13:50:59;28.40;43.10
42421;DHT22;28063;48.140;11.588;2023-07-20T13:53:25;28.40;43.40
42421;DHT22;28063;48.140;11.588;2023-07-20T13:55:50;28.20;43.80
42421;DHT22;28063;48.140;11.588;2023-07-20T13:58:18;28.00;43.30
42421;DHT22;28063;48.140;11.588;2023-07-20T14:00:43;27.70;43.70
42421;DHT22;28063;48.140;11.588;2023-07-20T14:03:09;27.30;44.00
42421;DHT22;28063;48.140;11.588;2023-07-20T14:05:35;27.00;44.70
42421;DHT22;28063;48.140;11.588;2023-07-20T14:08:00;27.00;45.10
42421;DHT22;28063;48.140;11.588;2023-07-20T14:10:26;27.10;45.10
42421;DHT22;28063;48.140;11.588;2023-07-20T14:12:52;27.40;44.80
42421;DHT22;28063;48.140;11.588;2023-07-20T14:15:17;27.70;44.20
42421;DHT22;28063;48.140;11.588;2023-07-20T14:17:44;27.90;43.20
42421;DHT22;28063;48.140;11.588;2023-07-20T14:20:10;28.20;43.20
42421;DHT22;28063;48.140;11.588;2023-07-20T14:22:36;28.20;43.80
42421;DHT22;28063;48.140;11.588;2023-07-20T14:25:02;28.40;42.90
42421;DHT22;28063;48.140;11.588;2023-07-20T14:27:28;28.30;42.60
42421;DHT22;28063;48.140;11.588;2023-07-20T14:29:54;28.10;42.70
42421;DHT22;28063;48.140;11.588;2023-07-20T14:32:20;28.10;43.00
42421;DHT22;28063;48.140;11.588;2023-07-20T14:34:46;28.00;43.00
42421;DHT22;28063;48.140;11.588;2023-07-20T14:37:11;28.10;43.20
42421;DHT22;28063;48.140;11.588;2023-07-20T14:39:38;28.40;42.60
42421;DHT22;28063;48.140;11.588;2023-07-20T14:42:04;28.40;42.50
42421;DHT22;28063;48.140;11.588;2023-07-20T14:44:30;28.50;42.70
42421;DHT22;28063;48.140;11.588;2023-07-20T14:46:55;28.60;43.10
42421;DHT22;28063;48.140;11.588;2023-07-20T14:49:21;28.60;42.60
42421;DHT22;28063;48.140;11.588;2023-07-20T14:51:47;28.80;42.70
42421;DHT22;28063;48.140;11.588;2023-07-20T14:54:13;29.00;42.40
42421;DHT22;28063;48.140;11.588;2023-07-20T14:56:39;29.30;41.80
42421;DHT22;28063;48.140;11.588;2023-07-20T14:59:10;29.20;41.60
42421;DHT22;28063;48.140;11.588;2023-07-20T15:01:36;28.70;41.80
42421;DHT22;28063;48.140;11.588;2023-07-20T15:04:01;28.40;42.90
42421;DHT22;28063;48.140;11.588;2023-07-20T15:06:27;28.30;42.90
42421;DHT22;28063;48.140;11.588;2023-07-20T15:08:55;28.30;43.30
42421;DHT22;28063;48.140;11.588;2023-07-20T15:11:21;28.00;43.60
42421;DHT22;28063;48.140;11.588;2023-07-20T15:13:47;27.90;43.90
42421;DHT22;28063;48.140;11.588;2023-07-20T15:16:12;27.80;44.00
42421;DHT22;28063;48.140;11.588;2023-07-20T15:18:38;27.50;44.00
42421;DHT22;28063;48.140;11.588;2023-07-20T15:21:04;27.30;44.40
42421;DHT22;28063;48.140;11.588;2023-07-20T15:23:29;27.20;44.60
42421;DHT22;28063;48.140;11.588;2023-07-20T15:25:56;27.40;44.70
42421;DHT22;28063;48.140;11.588;2023-07-20T15:28:22;27.60;44.20
42421;DHT22;28063;48.140;11.588;2023-07-20T15:30:48;27.80;44.30
42421;DHT22;28063;48.140;11.588;2023-07-20T15:33:14;27.90;43.80
42421;DHT22;28063;48.140;11.588;2023-07-20T15:35:40;27.90;44.10
42421;DHT22;28063;48.140;11.588;2023-07-20T15:38:05;28.00;43.60
42421;DHT22;28063;48.140;11.588;2023-07-20T15:40:31;28.00;43.60
42421;DHT22;28063;48.140;11.588;2023-07-20T15:42:56;28.00;43.80